LFBE/EGC METAR and TAF weather

Enter ICAO airport designator
Station Type Date Time Source
LFBE METAR 2020/04/02 03:30 UTC NOAA

LFBE 020330Z AUTO 07003KT CAVOK 02/01 Q1014


Station Type Date Time Source
LFBE Decoded METAR 2020/04/02 03:30 UTC NOAA

Bergerac, France (LFBE) 44-49N 000-31E 52M
Apr 01, 2020 - 11:30 PM EDT / 2020.04.02 0330 UTC
Wind: from the ENE (070 degrees) at 3 MPH (3 KT):0
Visibility: greater than 7 mile(s):0
Temperature: 35 F (2 C)
Dew Point: 33 F (1 C)
Relative Humidity: 93%
Pressure (altimeter): 29.94 in. Hg (1014 hPa)
ob: LFBE 020330Z AUTO 07003KT CAVOK 02/01 Q1014
cycle: 3

Station Type Date Time Source
LFBE TAF 2020/03/27 18:59 UTC NOAA

TAF LFBE 271856Z 2718/2818 CNL

Example: see airport list